createdAt,value
2023-01-08T00:00:37.307Z,46.25
2023-01-08T00:02:44.310Z,48.38
2023-01-08T00:04:51.818Z,40.42
2023-01-08T00:07:00.509Z,44.08
2023-01-08T00:09:07.946Z,39.92
2023-01-08T00:11:15.307Z,42.95
2023-01-08T00:13:22.484Z,51.15
2023-01-08T00:15:29.561Z,45.08
2023-01-08T00:17:36.643Z,54.40
2023-01-08T00:19:44.284Z,52.38
2023-01-08T00:21:51.572Z,53.25
2023-01-08T00:24:00.283Z,54.55
2023-01-08T00:26:08.394Z,53.60
2023-01-08T00:28:16.083Z,54.38
2023-01-08T00:30:23.417Z,52.20
2023-01-08T00:32:30.599Z,56.17
2023-01-08T00:34:37.730Z,58.10
2023-01-08T00:36:45.172Z,56.45
2023-01-08T00:38:52.245Z,58.22
2023-01-08T00:41:01.349Z,61.63
2023-01-08T00:43:08.200Z,60.88
2023-01-08T00:45:15.685Z,61.00
2023-01-08T00:47:22.764Z,58.70
2023-01-08T00:49:30.199Z,59.92
2023-01-08T00:51:37.131Z,57.47
2023-01-08T00:53:44.460Z,62.00
2023-01-08T00:55:51.900Z,63.40
2023-01-08T00:58:00.825Z,59.35
2023-01-08T01:00:09.751Z,63.65
2023-01-08T01:02:17.024Z,60.08
2023-01-08T01:04:24.161Z,59.58
2023-01-08T01:06:31.543Z,60.88
2023-01-08T01:08:38.880Z,60.03
2023-01-08T01:10:46.265Z,50.13
2023-01-08T01:12:53.455Z,51.58
2023-01-08T01:15:02.327Z,52.35
2023-01-08T01:17:09.244Z,52.88
2023-01-08T01:19:16.683Z,52.92
2023-01-08T01:21:26.422Z,56.80
2023-01-08T01:23:33.811Z,50.10
2023-01-08T01:25:42.282Z,48.92
2023-01-08T01:27:50.992Z,52.78
2023-01-08T01:29:58.681Z,52.90
2023-01-08T01:32:07.658Z,46.25
2023-01-08T01:34:14.785Z,49.08
2023-01-08T01:36:24.595Z,48.15
2023-01-08T01:38:31.878Z,42.50
2023-01-08T01:40:38.938Z,44.00
2023-01-08T01:42:46.277Z,48.17
2023-01-08T01:44:53.203Z,48.53
2023-01-08T01:47:01.049Z,48.00
2023-01-08T01:49:13.044Z,48.08
2023-01-08T01:53:30.173Z,44.58
2023-01-08T01:55:39.757Z,46.47
2023-01-08T01:57:56.156Z,42.72
2023-01-08T02:00:06.971Z,42.92
2023-01-08T02:02:19.664Z,39.50
2023-01-08T02:04:29.587Z,33.72
2023-01-08T02:06:41.062Z,46.88
2023-01-08T02:08:59.302Z,37.65
2023-01-08T02:11:13.293Z,36.33
2023-01-08T02:13:24.808Z,36.60
2023-01-08T02:15:39.689Z,34.15
2023-01-08T02:17:52.866Z,34.53
2023-01-08T02:20:06.142Z,38.00
2023-01-08T02:22:22.230Z,42.70
2023-01-08T02:24:39.854Z,35.78
2023-01-08T02:26:50.005Z,35.90
2023-01-08T02:29:00.820Z,38.00
2023-01-08T02:31:09.432Z,44.57
2023-01-08T02:33:16.462Z,41.65
2023-01-08T02:35:23.798Z,39.17
2023-01-08T02:37:30.773Z,41.83
2023-01-08T02:39:53.317Z,35.20
2023-01-08T02:42:12.429Z,40.33
2023-01-08T02:44:29.441Z,39.22
2023-01-08T02:46:41.177Z,39.13
2023-01-08T02:48:51.738Z,32.72
2023-01-08T02:51:02.915Z,33.10
2023-01-08T02:53:17.014Z,35.55
2023-01-08T02:55:26.497Z,32.08
2023-01-08T02:57:37.309Z,37.95
2023-01-08T02:59:46.639Z,36.58
2023-01-08T03:01:55.122Z,29.00
2023-01-08T03:04:07.775Z,35.38
2023-01-08T03:06:18.642Z,32.53
2023-01-08T03:08:26.324Z,28.80
2023-01-08T03:10:35.719Z,28.13
2023-01-08T03:12:56.764Z,29.75
2023-01-08T03:15:09.432Z,29.08
2023-01-08T03:17:22.842Z,29.08
2023-01-08T03:19:35.906Z,31.35
2023-01-08T03:21:45.719Z,29.30
2023-01-08T03:23:54.644Z,27.35
2023-01-08T03:26:03.562Z,28.75
2023-01-08T03:28:17.143Z,27.55
2023-01-08T03:30:26.122Z,28.05
2023-01-08T03:32:34.167Z,31.00
2023-01-08T03:34:43.636Z,27.05
2023-01-08T03:36:53.700Z,29.00
2023-01-08T03:39:04.573Z,31.25
2023-01-08T03:41:14.722Z,26.25
2023-01-08T03:43:23.746Z,33.58
2023-01-08T03:45:33.493Z,29.77
2023-01-08T03:47:42.366Z,27.20
2023-01-08T03:49:50.570Z,26.33
2023-01-08T03:51:57.750Z,25.27
2023-01-08T03:54:04.880Z,23.20
2023-01-08T03:56:12.312Z,29.35
2023-01-08T03:58:19.395Z,20.98
2023-01-08T04:00:28.628Z,22.20
2023-01-08T04:02:35.687Z,22.23
2023-01-08T04:04:42.963Z,25.60
2023-01-08T04:06:49.963Z,22.90
2023-01-08T04:08:57.349Z,50.53
2023-01-08T04:11:04.434Z,74.65
2023-01-08T04:13:11.971Z,27.17
2023-01-08T04:15:19.101Z,54.70
2023-01-08T04:17:28.333Z,28.42
2023-01-08T04:19:35.359Z,22.65
2023-01-08T04:21:42.856Z,22.63
2023-01-08T04:23:50.437Z,22.75
2023-01-08T04:25:58.027Z,21.92
2023-01-08T04:28:05.008Z,24.27
2023-01-08T04:30:13.519Z,27.63
2023-01-08T04:32:20.446Z,22.60
2023-01-08T04:34:29.372Z,17.08
2023-01-08T04:36:36.339Z,22.70
2023-01-08T04:38:43.573Z,18.85
2023-01-08T04:40:50.603Z,20.45
2023-01-08T04:42:57.936Z,18.20
2023-01-08T04:45:05.223Z,21.48
2023-01-08T04:47:12.504Z,19.65
2023-01-08T04:49:19.483Z,21.10
2023-01-08T04:51:28.661Z,21.33
2023-01-08T04:53:38.898Z,24.10
2023-01-08T04:55:46.182Z,21.45
2023-01-08T04:57:53.176Z,19.40
2023-01-08T05:00:00.579Z,25.10
2023-01-08T05:02:07.698Z,21.50
2023-01-08T05:04:15.385Z,23.98
2023-01-08T05:06:22.418Z,22.20
2023-01-08T05:08:31.440Z,22.88
2023-01-08T05:10:38.415Z,23.63
2023-01-08T05:12:45.800Z,27.42
2023-01-08T05:14:52.822Z,21.05
2023-01-08T05:17:00.161Z,24.33
2023-01-08T05:19:07.196Z,24.90
2023-01-08T05:21:14.726Z,19.50
2023-01-08T05:23:21.744Z,16.67
2023-01-08T05:25:30.733Z,21.50
2023-01-08T05:27:37.662Z,18.98
2023-01-08T05:29:45.052Z,18.17
2023-01-08T05:31:52.075Z,28.98
2023-01-08T05:34:01.873Z,17.05
2023-01-08T05:36:10.394Z,16.60
2023-01-08T05:38:17.670Z,17.63
2023-01-08T05:40:24.716Z,17.92
2023-01-08T05:42:33.791Z,20.23
2023-01-08T05:44:40.644Z,13.40
2023-01-08T05:46:47.879Z,15.73
2023-01-08T05:48:54.851Z,13.88
2023-01-08T05:51:02.293Z,13.57
2023-01-08T05:53:11.006Z,16.50
2023-01-08T05:55:18.087Z,17.45
2023-01-08T05:57:26.084Z,15.50
2023-01-08T05:59:34.714Z,16.98
2023-01-08T06:01:42.099Z,15.13
2023-01-08T06:03:49.281Z,14.63
2023-01-08T06:05:56.657Z,16.27
2023-01-08T06:08:04.199Z,15.27
2023-01-08T06:10:12.199Z,15.02
2023-01-08T06:12:19.186Z,16.80
2023-01-08T06:14:26.722Z,13.82
2023-01-08T06:16:35.442Z,16.90
2023-01-08T06:18:42.980Z,15.63
2023-01-08T06:20:49.951Z,16.38
2023-01-08T06:22:58.106Z,16.77
2023-01-08T06:25:05.296Z,17.52
2023-01-08T06:27:12.628Z,18.20
2023-01-08T06:29:19.547Z,18.75
2023-01-08T06:31:26.952Z,17.02
2023-01-08T06:33:35.851Z,20.80
2023-01-08T06:35:42.951Z,17.83
2023-01-08T06:37:49.859Z,21.60
2023-01-08T06:39:57.042Z,18.88
2023-01-08T06:42:04.376Z,22.15
2023-01-08T06:44:12.992Z,19.35
2023-01-08T06:46:20.259Z,21.45
2023-01-08T06:48:27.772Z,18.85
2023-01-08T06:50:37.966Z,20.35
2023-01-08T06:52:44.995Z,22.30
2023-01-08T06:54:52.383Z,20.27
2023-01-08T06:56:59.358Z,20.48
2023-01-08T06:59:06.897Z,20.08
2023-01-08T07:01:18.283Z,18.48
2023-01-08T07:05:34.602Z,19.63
2023-01-08T07:07:42.235Z,19.30
2023-01-08T07:09:49.462Z,20.83
2023-01-08T07:11:56.849Z,21.45
2023-01-08T07:14:03.775Z,18.65
2023-01-08T07:16:11.500Z,20.08
2023-01-08T07:18:18.450Z,21.48
2023-01-08T07:20:25.881Z,22.10
2023-01-08T07:22:34.547Z,23.70
2023-01-08T07:24:41.888Z,20.35
2023-01-08T07:26:49.116Z,25.65
2023-01-08T07:28:56.553Z,18.00
2023-01-08T07:31:07.531Z,18.98
2023-01-08T07:33:14.810Z,21.88
2023-01-08T07:35:21.735Z,22.63
2023-01-08T07:37:29.230Z,21.95
2023-01-08T07:39:37.896Z,18.67
2023-01-08T07:41:45.737Z,20.88
2023-01-08T07:43:52.917Z,20.10
2023-01-08T07:46:01.087Z,19.98
2023-01-08T07:48:08.306Z,25.85
2023-01-08T07:50:15.643Z,23.90
2023-01-08T07:52:22.977Z,23.70
2023-01-08T07:54:30.416Z,20.65
2023-01-08T07:56:39.130Z,22.38
2023-01-08T07:58:46.518Z,22.77
2023-01-08T08:00:53.528Z,22.52
2023-01-08T08:03:06.803Z,20.88
2023-01-08T08:05:14.002Z,21.23
2023-01-08T08:07:21.297Z,20.08
2023-01-08T08:09:28.517Z,20.75
2023-01-08T08:11:39.541Z,18.45
2023-01-08T08:13:46.673Z,24.77
2023-01-08T08:15:54.097Z,22.90
2023-01-08T08:18:01.141Z,23.00
2023-01-08T08:20:09.350Z,26.45
2023-01-08T08:22:16.676Z,20.15
2023-01-08T08:24:24.065Z,19.70
2023-01-08T08:26:31.088Z,21.48
2023-01-08T08:28:40.327Z,20.70
2023-01-08T08:30:47.399Z,25.38
2023-01-08T08:32:54.685Z,21.40
2023-01-08T08:35:01.871Z,24.13
2023-01-08T08:37:09.977Z,23.70
2023-01-08T08:39:17.003Z,21.60
2023-01-08T08:41:24.701Z,22.85
2023-01-08T08:43:32.195Z,22.42
2023-01-08T08:45:41.664Z,20.80
2023-01-08T08:47:48.650Z,18.13
2023-01-08T08:49:55.875Z,20.75
2023-01-08T08:52:03.275Z,20.45
2023-01-08T08:54:10.552Z,22.58
2023-01-08T08:56:17.522Z,22.88
2023-01-08T08:58:24.702Z,17.83
2023-01-08T09:00:31.733Z,19.98
2023-01-08T09:02:40.857Z,22.90
2023-01-08T09:04:48.051Z,26.67
2023-01-08T09:06:55.272Z,28.35
2023-01-08T09:09:02.462Z,23.60
2023-01-08T09:11:09.740Z,23.05
2023-01-08T09:13:16.875Z,20.98
2023-01-08T09:15:24.270Z,24.55
2023-01-08T09:17:31.289Z,25.10
2023-01-08T09:19:40.364Z,24.13
2023-01-08T09:21:47.438Z,25.13
2023-01-08T09:23:54.622Z,26.40
2023-01-08T09:26:04.113Z,25.83
2023-01-08T09:28:14.213Z,24.60
2023-01-08T09:30:21.236Z,30.23
2023-01-08T09:32:28.209Z,31.10
2023-01-08T09:34:37.090Z,26.33
2023-01-08T09:36:45.851Z,29.02
2023-01-08T09:38:52.930Z,31.23
2023-01-08T09:41:03.318Z,27.42
2023-01-08T09:43:12.472Z,35.35
2023-01-08T09:45:29.279Z,26.15
2023-01-08T09:47:40.145Z,26.08
2023-01-08T09:49:49.528Z,25.30
2023-01-08T09:51:58.447Z,23.52
2023-01-08T09:54:06.549Z,26.35
2023-01-08T09:56:17.624Z,22.95
2023-01-08T09:58:31.362Z,26.17
2023-01-08T10:00:38.943Z,24.67
2023-01-08T10:02:46.526Z,28.20
2023-01-08T10:04:57.717Z,27.33
2023-01-08T10:07:15.342Z,34.03
2023-01-08T10:09:24.867Z,35.78
2023-01-08T10:11:37.281Z,27.25
2023-01-08T10:13:48.410Z,27.20
2023-01-08T10:15:55.666Z,24.38
2023-01-08T10:18:06.252Z,32.55
2023-01-08T10:20:15.998Z,27.45
2023-01-08T10:22:26.092Z,33.13
2023-01-08T10:24:37.884Z,28.45
2023-01-08T10:26:45.217Z,28.85
2023-01-08T10:28:52.090Z,27.90
2023-01-08T10:31:07.187Z,25.73
2023-01-08T10:33:19.256Z,29.90
2023-01-08T10:35:34.834Z,26.67
2023-01-08T10:37:48.110Z,24.70
2023-01-08T10:39:57.289Z,30.85
2023-01-08T10:42:09.803Z,28.38
2023-01-08T10:44:22.095Z,25.95
2023-01-08T10:46:32.053Z,32.83
2023-01-08T10:48:40.678Z,27.55
2023-01-08T10:50:48.933Z,30.08
2023-01-08T10:53:02.245Z,31.10
2023-01-08T10:55:17.305Z,33.63
2023-01-08T10:57:29.815Z,38.30
2023-01-08T10:59:40.372Z,35.17
2023-01-08T11:01:51.129Z,37.28
2023-01-08T11:04:01.036Z,33.20
2023-01-08T11:06:16.100Z,27.63
2023-01-08T11:08:26.611Z,34.50
2023-01-08T11:10:34.099Z,32.97
2023-01-08T11:12:42.663Z,26.73
2023-01-08T11:14:51.739Z,26.15
2023-01-08T11:16:59.997Z,26.45
2023-01-08T11:19:08.822Z,25.95
2023-01-08T11:21:23.662Z,25.48
2023-01-08T11:23:32.399Z,26.00
2023-01-08T11:25:41.358Z,31.35
2023-01-08T11:27:49.830Z,24.20
2023-01-08T11:30:02.906Z,25.70
2023-01-08T11:32:35.067Z,24.58
2023-01-08T11:34:51.925Z,28.35
2023-01-08T11:37:05.567Z,28.13
2023-01-08T11:39:15.300Z,28.65
2023-01-08T11:41:37.489Z,27.08
2023-01-08T11:43:54.704Z,27.52
2023-01-08T11:46:25.125Z,27.52
2023-01-08T11:48:44.241Z,31.00
2023-01-08T11:51:06.157Z,31.42
2023-01-08T11:53:24.613Z,24.98
2023-01-08T11:55:46.547Z,28.40
2023-01-08T11:58:24.201Z,30.27
2023-01-08T12:00:50.316Z,28.00
2023-01-08T12:02:59.582Z,30.00
2023-01-08T12:05:33.657Z,28.58
2023-01-08T12:07:51.014Z,30.75
2023-01-08T12:10:04.606Z,27.88
2023-01-08T12:12:27.051Z,30.80
2023-01-08T12:17:07.833Z,29.92
2023-01-08T12:19:31.189Z,29.98
2023-01-08T12:21:48.511Z,29.98
2023-01-08T12:24:22.521Z,32.35
2023-01-08T12:26:38.510Z,28.40
2023-01-08T12:29:10.626Z,28.55
2023-01-08T12:31:35.704Z,32.63
2023-01-08T12:33:46.491Z,31.65
2023-01-08T12:35:57.616Z,29.08
2023-01-08T12:38:08.285Z,37.30
2023-01-08T12:40:22.166Z,28.42
2023-01-08T12:42:32.831Z,33.05
2023-01-08T12:44:43.487Z,31.67
2023-01-08T12:46:52.418Z,35.65
2023-01-08T12:49:00.927Z,32.08
2023-01-08T12:51:19.080Z,33.17
2023-01-08T12:53:37.820Z,34.63
2023-01-08T12:55:56.887Z,33.30
2023-01-08T12:58:15.445Z,35.85
2023-01-08T13:00:34.539Z,32.17
2023-01-08T13:02:54.074Z,32.70
2023-01-08T13:05:01.197Z,34.70
2023-01-08T13:07:09.089Z,36.67
2023-01-08T13:09:26.251Z,43.20
2023-01-08T13:11:37.995Z,33.38
2023-01-08T13:13:46.814Z,33.58
2023-01-08T13:15:55.890Z,35.70
2023-01-08T13:18:09.056Z,35.25
2023-01-08T13:20:25.509Z,34.05
2023-01-08T13:22:34.181Z,36.63
2023-01-08T13:24:43.816Z,31.35
2023-01-08T13:26:50.999Z,30.63
2023-01-08T13:29:08.936Z,34.70
2023-01-08T13:31:31.865Z,32.13
2023-01-08T13:33:45.263Z,30.02
2023-01-08T13:35:52.239Z,37.42
2023-01-08T13:38:16.843Z,31.33
2023-01-08T13:40:54.319Z,35.80
2023-01-08T13:43:04.011Z,36.33
2023-01-08T13:45:16.156Z,34.83
2023-01-08T13:47:30.925Z,32.22
2023-01-08T13:49:44.087Z,33.42
2023-01-08T13:51:51.678Z,34.80
2023-01-08T13:54:01.520Z,33.47
2023-01-08T13:56:13.210Z,34.90
2023-01-08T13:58:21.671Z,32.20
2023-01-08T14:00:33.245Z,31.80
2023-01-08T14:02:51.301Z,33.53
2023-01-08T14:04:58.947Z,33.15
2023-01-08T14:07:16.974Z,32.63
2023-01-08T14:09:26.356Z,40.20
2023-01-08T14:11:36.760Z,31.80
2023-01-08T14:13:46.046Z,32.90
2023-01-08T14:15:53.128Z,32.33
2023-01-08T14:18:03.989Z,31.40
2023-01-08T14:20:18.494Z,34.55
2023-01-08T14:22:30.489Z,35.60
2023-01-08T14:24:38.436Z,32.55
2023-01-08T14:26:47.923Z,28.50
2023-01-08T14:28:58.129Z,31.98
2023-01-08T14:31:05.516Z,31.50
2023-01-08T14:33:17.398Z,32.60
2023-01-08T14:35:33.555Z,31.88
2023-01-08T14:37:40.509Z,31.10
2023-01-08T14:39:49.551Z,30.17
2023-01-08T14:42:14.587Z,28.33
2023-01-08T14:44:29.087Z,31.80
2023-01-08T14:46:45.532Z,28.88
2023-01-08T14:48:55.700Z,33.53
2023-01-08T14:51:08.500Z,30.80
2023-01-08T14:53:23.910Z,31.48
2023-01-08T14:55:32.196Z,30.83
2023-01-08T14:57:39.473Z,29.63
2023-01-08T14:59:51.575Z,30.15
2023-01-08T15:02:01.910Z,29.55
2023-01-08T15:04:18.227Z,33.47
2023-01-08T15:06:30.274Z,34.95
2023-01-08T15:08:39.196Z,31.60
2023-01-08T15:10:46.579Z,29.08
2023-01-08T15:13:02.008Z,31.50
2023-01-08T15:15:15.714Z,34.67
2023-01-08T15:17:25.387Z,32.10
2023-01-08T15:19:36.710Z,28.27
2023-01-08T15:21:50.498Z,30.42
2023-01-08T15:23:59.316Z,30.25
2023-01-08T15:26:06.599Z,30.73
2023-01-08T15:28:22.130Z,30.63
2023-01-08T15:30:34.108Z,29.42
2023-01-08T15:34:50.198Z,30.02
2023-01-08T15:36:57.112Z,30.67
2023-01-08T15:39:04.384Z,35.55
2023-01-08T15:41:14.132Z,31.08
2023-01-08T15:43:22.689Z,36.58
2023-01-08T15:45:32.956Z,40.35
2023-01-08T15:47:40.329Z,32.35
2023-01-08T15:49:48.884Z,32.67
2023-01-08T15:51:56.489Z,36.50
2023-01-08T15:54:03.874Z,36.75
2023-01-08T15:56:11.413Z,31.27
2023-01-08T15:58:19.127Z,36.80
2023-01-08T16:00:26.746Z,32.45
2023-01-08T16:02:33.694Z,29.77
2023-01-08T16:04:40.855Z,34.25
2023-01-08T16:06:50.034Z,31.90
2023-01-08T16:09:00.899Z,33.15
2023-01-08T16:11:08.083Z,34.95
2023-01-08T16:13:15.418Z,31.58
2023-01-08T16:15:23.111Z,31.35
2023-01-08T16:17:32.753Z,31.20
2023-01-08T16:19:39.830Z,31.75
2023-01-08T16:21:51.215Z,34.13
2023-01-08T16:23:58.085Z,35.50
2023-01-08T16:26:09.619Z,30.92
2023-01-08T16:28:16.700Z,38.90
2023-01-08T16:30:23.983Z,35.00
2023-01-08T16:32:30.786Z,33.22
2023-01-08T16:34:38.147Z,30.40
2023-01-08T16:36:45.129Z,32.15
2023-01-08T16:38:54.551Z,31.90
2023-01-08T16:41:02.346Z,32.83
2023-01-08T16:43:09.686Z,34.30
2023-01-08T16:45:16.660Z,32.75
2023-01-08T16:47:23.994Z,31.92
2023-01-08T16:49:31.483Z,31.10
2023-01-08T16:51:39.083Z,32.47
2023-01-08T16:53:46.567Z,36.53
2023-01-08T16:55:56.561Z,31.13
2023-01-08T16:58:03.538Z,33.25
2023-01-08T17:00:12.156Z,35.38
2023-01-08T17:02:20.262Z,31.42
2023-01-08T17:04:27.542Z,33.80
2023-01-08T17:06:34.670Z,37.10
2023-01-08T17:08:43.341Z,33.95
2023-01-08T17:10:50.724Z,37.42
2023-01-08T17:13:00.979Z,39.03
2023-01-08T17:15:08.569Z,38.70
2023-01-08T17:17:15.784Z,34.90
2023-01-08T17:19:22.815Z,31.25
2023-01-08T17:21:30.280Z,32.90
2023-01-08T17:23:37.557Z,33.33
2023-01-08T17:25:44.736Z,30.50
2023-01-08T17:27:53.916Z,36.38
2023-01-08T17:30:03.089Z,36.42
2023-01-08T17:32:10.987Z,32.42
2023-01-08T17:34:18.271Z,36.95
2023-01-08T17:36:26.990Z,32.72
2023-01-08T17:38:34.175Z,32.08
2023-01-08T17:40:41.455Z,35.10
2023-01-08T17:42:48.696Z,28.40
2023-01-08T17:44:57.360Z,35.10
2023-01-08T17:47:06.326Z,29.75
2023-01-08T17:49:13.609Z,32.65
2023-01-08T17:51:20.999Z,33.28
2023-01-08T17:53:28.202Z,31.20
2023-01-08T17:55:35.561Z,30.30
2023-01-08T17:57:42.492Z,32.05
2023-01-08T17:59:50.287Z,29.35
2023-01-08T18:01:58.736Z,33.75
2023-01-08T18:04:08.032Z,27.15
2023-01-08T18:06:15.911Z,28.65
2023-01-08T18:08:23.264Z,26.63
2023-01-08T18:10:30.295Z,29.65
2023-01-08T18:12:37.681Z,29.15
2023-01-08T18:14:45.218Z,29.45
2023-01-08T18:16:52.505Z,27.35
2023-01-08T18:19:00.966Z,31.15
2023-01-08T18:21:11.015Z,32.58
2023-01-08T18:23:17.819Z,29.30
2023-01-08T18:25:24.866Z,25.90
2023-01-08T18:27:31.749Z,28.75
2023-01-08T18:29:38.920Z,30.55
2023-01-08T18:31:46.432Z,27.25
2023-01-08T18:33:54.568Z,28.48
2023-01-08T18:36:07.206Z,28.13
2023-01-08T18:38:16.799Z,28.52
2023-01-08T18:40:23.839Z,28.05
2023-01-08T18:42:31.279Z,26.77
2023-01-08T18:44:39.771Z,27.63
2023-01-08T18:46:48.233Z,28.52
2023-01-08T18:48:56.500Z,28.27
2023-01-08T18:51:06.456Z,24.75
2023-01-08T18:53:15.182Z,29.08
2023-01-08T18:55:23.074Z,28.75
2023-01-08T18:57:30.189Z,28.25
2023-01-08T18:59:37.536Z,27.20
2023-01-08T19:01:44.652Z,47.20
2023-01-08T19:03:52.110Z,32.25
2023-01-08T19:05:58.979Z,34.70
2023-01-08T19:08:06.213Z,33.85
2023-01-08T19:10:16.035Z,35.80
2023-01-08T19:12:23.390Z,37.33
2023-01-08T19:14:30.206Z,34.75
2023-01-08T19:16:37.448Z,35.38
2023-01-08T19:18:44.685Z,34.70
2023-01-08T19:20:51.951Z,37.15
2023-01-08T19:22:58.992Z,33.80
2023-01-08T19:25:06.482Z,34.88
2023-01-08T19:27:15.504Z,36.90
2023-01-08T19:29:23.044Z,32.45
2023-01-08T19:31:30.109Z,30.77
2023-01-08T19:33:37.259Z,37.75
2023-01-08T19:35:44.280Z,30.83
2023-01-08T19:37:51.524Z,31.80
2023-01-08T19:40:02.095Z,28.60
2023-01-08T19:42:25.731Z,29.75
2023-01-08T19:44:34.552Z,30.80
2023-01-08T19:46:41.798Z,31.90
2023-01-08T19:48:48.727Z,45.17
2023-01-08T19:50:55.853Z,52.80
2023-01-08T19:53:02.810Z,50.38
2023-01-08T19:55:10.626Z,48.42
2023-01-08T19:57:17.499Z,41.20
2023-01-08T19:59:25.809Z,37.33
2023-01-08T20:01:34.924Z,34.10
2023-01-08T20:03:42.117Z,42.80
2023-01-08T20:05:49.196Z,31.25
2023-01-08T20:07:56.332Z,36.42
2023-01-08T20:10:03.616Z,37.08
2023-01-08T20:12:11.464Z,36.80
2023-01-08T20:14:20.812Z,35.70
2023-01-08T20:16:28.750Z,32.90
2023-01-08T20:18:38.490Z,32.78
2023-01-08T20:20:45.339Z,34.70
2023-01-08T20:22:52.435Z,32.75
2023-01-08T20:24:59.470Z,34.38
2023-01-08T20:27:06.601Z,32.70
2023-01-08T20:29:14.139Z,32.20
2023-01-08T20:31:22.581Z,34.13
2023-01-08T20:33:29.577Z,33.28
2023-01-08T20:35:40.235Z,31.35
2023-01-08T20:37:47.162Z,31.17
2023-01-08T20:39:54.652Z,29.38
2023-01-08T20:42:04.696Z,30.20
2023-01-08T20:44:12.037Z,30.27
2023-01-08T20:46:19.112Z,30.63
2023-01-08T20:48:28.382Z,32.58
2023-01-08T20:50:37.172Z,30.98
2023-01-08T20:52:44.608Z,30.90
2023-01-08T20:54:51.834Z,29.88
2023-01-08T20:56:59.915Z,30.88
2023-01-08T20:59:07.220Z,33.28
2023-01-08T21:01:16.689Z,29.50
2023-01-08T21:03:24.044Z,31.27
2023-01-08T21:05:31.223Z,31.92
2023-01-08T21:07:39.991Z,33.50
2023-01-08T21:09:47.685Z,33.85
2023-01-08T21:11:54.733Z,30.95
2023-01-08T21:14:02.815Z,29.73
2023-01-08T21:16:11.821Z,31.10
2023-01-08T21:18:19.075Z,31.00
2023-01-08T21:20:25.954Z,34.40
2023-01-08T21:22:33.131Z,33.85
2023-01-08T21:24:42.616Z,30.17
2023-01-08T21:26:50.006Z,35.13
2023-01-08T21:28:57.489Z,29.38
2023-01-08T21:31:08.979Z,32.05
2023-01-08T21:33:16.001Z,33.25
2023-01-08T21:35:23.491Z,30.33
2023-01-08T21:37:32.360Z,34.80
2023-01-08T21:39:41.386Z,33.45
2023-01-08T21:42:04.899Z,36.60
2023-01-08T21:44:33.637Z,36.03
2023-01-08T21:46:40.716Z,36.40
2023-01-08T21:48:50.978Z,36.47
2023-01-08T21:50:58.004Z,33.80
2023-01-08T21:53:21.614Z,34.22
2023-01-08T21:55:30.433Z,33.05
2023-01-08T21:57:42.638Z,30.02
2023-01-08T21:59:52.893Z,31.27
2023-01-08T22:01:59.986Z,35.90
2023-01-08T22:04:07.172Z,34.42
2023-01-08T22:06:14.430Z,34.10
2023-01-08T22:08:21.563Z,34.22
2023-01-08T22:10:30.125Z,34.83
2023-01-08T22:12:37.394Z,31.92
2023-01-08T22:14:44.451Z,31.98
2023-01-08T22:16:51.722Z,29.83
2023-01-08T22:18:58.857Z,30.67
2023-01-08T22:21:07.471Z,31.77
2023-01-08T22:23:14.495Z,31.65
2023-01-08T22:25:21.986Z,32.55
2023-01-08T22:27:31.429Z,31.20
2023-01-08T22:29:38.819Z,30.40
2023-01-08T22:31:45.942Z,30.80
2023-01-08T22:33:57.220Z,30.15
2023-01-08T22:36:05.989Z,32.03
2023-01-08T22:38:13.113Z,33.55
2023-01-08T22:40:20.653Z,33.45
2023-01-08T22:42:29.715Z,31.05
2023-01-08T22:44:36.867Z,36.08
2023-01-08T22:46:44.860Z,33.33
2023-01-08T22:48:52.031Z,31.27
2023-01-08T22:50:59.282Z,32.92
2023-01-08T22:53:06.151Z,32.75
2023-01-08T22:55:14.007Z,34.53
2023-01-08T22:57:21.025Z,32.80
2023-01-08T22:59:30.204Z,33.08
2023-01-08T23:01:37.273Z,32.67
2023-01-08T23:03:45.733Z,29.58
2023-01-08T23:05:52.771Z,33.25
2023-01-08T23:08:00.005Z,33.58
2023-01-08T23:10:07.346Z,31.90
2023-01-08T23:12:14.572Z,30.92
2023-01-08T23:14:21.448Z,34.72
2023-01-08T23:16:30.460Z,32.45
2023-01-08T23:18:38.371Z,30.27
2023-01-08T23:20:45.961Z,32.90
2023-01-08T23:22:52.846Z,36.67
2023-01-08T23:25:00.069Z,35.10
2023-01-08T23:27:07.002Z,33.28
2023-01-08T23:29:14.481Z,37.08
2023-01-08T23:31:24.561Z,30.52
2023-01-08T23:33:33.606Z,31.02
2023-01-08T23:35:40.688Z,28.70
2023-01-08T23:37:47.766Z,32.67
2023-01-08T23:39:54.907Z,34.88
2023-01-08T23:42:02.217Z,35.20
2023-01-08T23:44:10.781Z,33.22
2023-01-08T23:46:18.184Z,35.58
2023-01-08T23:48:25.110Z,33.60
2023-01-08T23:50:34.238Z,39.95
2023-01-08T23:52:41.176Z,40.08
2023-01-08T23:54:48.800Z,37.65
2023-01-08T23:56:55.882Z,47.67
2023-01-08T23:59:03.113Z,48.05
